Time;durP1;ratioP1;P1;durP2;ratioP2;P2;SDS_P1;SDS_P2;PMS_P1;PMS_P2;Temp;Humidity;BMP_temperature;BMP_pressure;BME280_temperature;BME280_humidity;BME280_pressure;Samples;Min_cycle;Max_cycle;Signal;HPM_P1;HPM_P2
2021/12/10 00:00:34;;;;;;;1.35;1.25;;;;;;;-14.49;81.81;100545.47;4985704;28;20098;-86
2021/12/10 00:03:04;;;;;;;1.10;1.10;;;;;;;-14.54;82.08;100542.22;4977698;28;20567;-88
2021/12/10 00:05:36;;;;;;;1.45;1.35;;;;;;;-14.58;81.92;100545.81;4978937;28;20517;-88
2021/12/10 00:08:05;;;;;;;1.60;1.50;;;;;;;-14.60;82.10;100555.38;4978788;28;20576;-87
2021/12/10 00:10:42;;;;;;;1.65;1.55;;;;;;;-14.67;82.16;100551.28;4991106;28;20058;-88
2021/12/10 00:13:10;;;;;;;1.40;1.30;;;;;;;-14.67;82.20;100551.28;4978926;28;20501;-89
2021/12/10 00:15:39;;;;;;;1.15;1.15;;;;;;;-14.69;82.26;100548.72;4978774;28;20082;-89
2021/12/10 00:18:09;;;;;;;1.42;1.33;;;;;;;-14.72;82.35;100551.41;4960374;28;20576;-88
2021/12/10 00:20:38;;;;;;;1.30;1.20;;;;;;;-14.74;82.45;100560.13;4977739;28;20054;-89
2021/12/10 00:23:12;;;;;;;1.55;1.45;;;;;;;-14.77;82.55;100562.81;4959360;28;20473;-88
2021/12/10 00:25:45;;;;;;;1.50;1.40;;;;;;;-14.78;82.58;100555.91;4976248;28;20109;-90
2021/12/10 00:28:19;;;;;;;1.45;1.35;;;;;;;-14.79;82.77;100556.81;4947683;28;20510;-88
2021/12/10 00:31:21;;;;;;;1.52;1.42;;;;;;;-14.80;82.63;100560.31;4976957;28;20051;-89
2021/12/10 00:33:59;;;;;;;1.45;1.35;;;;;;;-14.79;82.75;100560.25;4976433;28;20365;-89
2021/12/10 00:36:27;;;;;;;1.38;1.27;;;;;;;-14.78;82.47;100555.91;4959284;28;20051;-89
2021/12/10 00:38:55;;;;;;;1.48;1.38;;;;;;;-14.79;82.57;100556.81;4977258;28;20105;-89
2021/12/10 00:41:24;;;;;;;1.38;1.27;;;;;;;-14.78;82.54;100550.75;4977687;28;20130;-90
2021/12/10 00:43:51;;;;;;;1.40;1.30;;;;;;;-14.76;82.55;100555.00;4959930;28;20058;-89
2021/12/10 00:46:18;;;;;;;1.60;1.50;;;;;;;-14.78;82.79;100554.19;4978949;28;20063;-90
2021/12/10 00:48:46;;;;;;;1.50;1.40;;;;;;;-14.82;82.80;100547.41;4979119;28;20066;-89
2021/12/10 00:51:13;;;;;;;1.40;1.30;;;;;;;-14.79;82.82;100547.31;4978925;28;20061;-89
2021/12/10 00:53:41;;;;;;;1.45;1.35;;;;;;;-14.79;82.61;100556.81;4986318;28;20038;-90
2021/12/10 00:56:08;;;;;;;1.48;1.38;;;;;;;-14.81;82.63;100553.44;4997724;28;20033;-90
2021/12/10 00:58:38;;;;;;;1.52;1.42;;;;;;;-14.84;82.65;100569.91;4990283;28;20054;-90
2021/12/10 01:01:11;;;;;;;1.10;1.10;;;;;;;-14.84;82.74;100564.72;4981712;28;20057;-90
2021/12/10 01:03:43;;;;;;;1.30;1.20;;;;;;;-14.85;82.79;100561.31;4961278;28;20145;-89
2021/12/10 01:06:12;;;;;;;1.60;1.50;;;;;;;-14.84;82.99;100567.31;4968501;28;20074;-91
2021/12/10 01:08:41;;;;;;;1.55;1.45;;;;;;;-14.83;82.99;100570.75;4986725;28;20054;-92
2021/12/10 01:11:12;;;;;;;1.58;1.48;;;;;;;-14.84;83.04;100575.09;4988586;28;20047;-91
2021/12/10 01:13:42;;;;;;;1.45;1.35;;;;;;;-14.88;82.99;100579.53;4971748;28;20058;-90
2021/12/10 01:25:05;;;;;;;1.27;1.17;;;;;;;-14.90;83.26;100581.31;4923669;29;20412;-86
2021/12/10 01:27:36;;;;;;;1.75;1.65;;;;;;;-14.97;83.24;100577.22;4907507;29;20134;-85
2021/12/10 01:30:17;;;;;;;1.15;1.10;;;;;;;-14.95;83.22;100583.19;4897350;29;20053;-90
2021/12/10 01:32:52;;;;;;;1.30;1.20;;;;;;;-14.95;83.42;100580.59;4903173;29;20049;-90
2021/12/10 01:35:22;;;;;;;1.33;1.23;;;;;;;-14.96;83.46;100580.63;4887806;29;20048;-91
2021/12/10 01:37:51;;;;;;;1.30;1.20;;;;;;;-14.93;83.57;100584.00;4891994;29;20086;-88
2021/12/10 01:40:21;;;;;;;1.35;1.25;;;;;;;-14.95;83.59;100578.03;4903516;29;20049;-89
2021/12/10 01:43:22;;;;;;;1.38;1.27;;;;;;;-14.88;83.45;100582.13;4893185;29;20053;-90
2021/12/10 01:46:01;;;;;;;1.63;1.52;;;;;;;-14.92;83.50;100583.09;4920076;29;20097;-93
2021/12/10 01:48:36;;;;;;;1.50;1.40;;;;;;;-14.91;83.60;100578.75;4898119;29;20142;-92
2021/12/10 01:51:05;;;;;;;1.30;1.20;;;;;;;-14.90;83.55;100581.31;4912942;29;20049;-94
2021/12/10 01:53:35;;;;;;;1.30;1.20;;;;;;;-14.91;83.76;100589.13;4920203;29;20055;-93
2021/12/10 01:56:07;;;;;;;1.40;1.30;;;;;;;-14.89;83.63;100590.78;4914340;29;20087;-89
2021/12/10 01:58:34;;;;;;;1.50;1.40;;;;;;;-14.88;83.67;100589.06;4964218;29;20106;-82
2021/12/10 02:01:09;;;;;;;1.38;1.27;;;;;;;-14.86;83.50;100593.31;4944661;29;20053;-84
2021/12/10 02:03:42;;;;;;;;;;;;;;;-14.85;83.38;100597.59;4963800;29;20051;-93
2021/12/10 02:06:09;;;;;;;1.33;1.23;;;;;;;-14.89;83.21;100597.72;4962768;29;19926;-85
2021/12/10 02:08:38;;;;;;;1.35;1.25;;;;;;;-14.93;83.36;100602.16;4962730;29;20065;-85
2021/12/10 02:11:06;;;;;;;1.45;1.35;;;;;;;-14.94;83.43;100600.44;4963341;29;20098;-88
2021/12/10 02:13:34;;;;;;;1.40;1.30;;;;;;;-14.94;83.23;100599.59;4945862;29;20047;-89
2021/12/10 02:16:02;;;;;;;1.40;1.30;;;;;;;-14.96;nan;100601.38;4963749;28;20051;-89
2021/12/10 02:18:29;;;;;;;1.50;1.40;;;;;;;-14.98;83.12;100595.41;4945124;29;20047;-87
2021/12/10 02:21:03;;;;;;;1.33;1.23;;;;;;;-15.01;83.38;100596.34;4944483;29;20075;-90
2021/12/10 02:23:42;;;;;;;1.40;1.30;;;;;;;-15.01;83.21;100593.75;4946672;29;20059;-91
2021/12/10 02:26:12;;;;;;;1.38;1.27;;;;;;;-15.05;83.05;100592.13;4945935;29;20051;-91
2021/12/10 02:28:40;;;;;;;1.50;1.40;;;;;;;-15.05;83.16;100586.94;4963693;29;20070;-90
2021/12/10 02:31:12;;;;;;;1.40;1.30;;;;;;;-15.07;83.19;100596.50;4963442;29;20055;-89
2021/12/10 02:33:39;;;;;;;1.30;1.20;;;;;;;-15.11;82.90;100597.50;4953102;28;20058;-89
2021/12/10 02:36:11;;;;;;;1.40;1.30;;;;;;;-15.18;82.96;100583.03;4960677;29;20079;-89
2021/12/10 02:38:43;;;;;;;1.60;1.50;;;;;;;-15.17;83.03;100589.88;4946901;29;20087;-89
2021/12/10 02:41:10;;;;;;;1.45;1.35;;;;;;;-15.21;82.98;100596.06;4963968;29;20062;-92
2021/12/10 02:43:38;;;;;;;1.50;1.40;;;;;;;-15.24;82.95;100598.72;4946748;29;20047;-85
2021/12/10 02:46:06;;;;;;;1.30;1.20;;;;;;;-15.26;82.93;100597.91;4947680;29;20055;-91
2021/12/10 02:48:33;;;;;;;1.50;1.40;;;;;;;-15.25;82.92;100602.22;4970100;29;20065;-91
2021/12/10 02:51:02;;;;;;;1.50;1.40;;;;;;;-15.30;82.76;100602.31;4973589;29;20466;-89
2021/12/10 02:53:34;;;;;;;1.50;1.40;;;;;;;-15.31;82.84;100600.66;4967285;29;20051;-90
2021/12/10 02:56:03;;;;;;;1.60;1.50;;;;;;;-15.31;82.74;100600.66;4948616;29;20055;-90
2021/12/10 02:58:31;;;;;;;1.45;1.35;;;;;;;-15.37;82.86;100599.03;4930593;28;20055;-85
2021/12/10 03:01:08;;;;;;;1.50;1.40;;;;;;;-15.35;82.83;100597.28;4968483;28;20042;-85
2021/12/10 03:03:37;;;;;;;1.50;1.40;;;;;;;-15.43;82.85;100596.63;4977506;28;20074;-86
2021/12/10 03:06:10;;;;;;;1.52;1.42;;;;;;;-15.42;82.87;100602.66;4995093;23;20054;-89
2021/12/10 03:08:38;;;;;;;1.30;1.20;;;;;;;-15.44;83.04;100605.31;4947514;28;20019;-83
2021/12/10 03:11:08;;;;;;;1.27;1.20;;;;;;;-15.46;83.02;100606.25;4976455;28;20078;-92
2021/12/10 03:13:35;;;;;;;1.50;1.40;;;;;;;-15.50;82.85;100613.22;4967103;29;20051;-90
2021/12/10 03:16:08;;;;;;;1.50;1.40;;;;;;;-15.53;83.03;100616.75;4959899;29;20125;-87
2021/12/10 03:18:35;;;;;;;1.50;1.40;;;;;;;-15.56;82.95;100615.97;4967442;29;20470;-89
2021/12/10 03:21:09;;;;;;;1.40;1.30;;;;;;;-15.56;83.01;100618.56;4957231;29;20105;-89
2021/12/10 03:23:42;;;;;;;1.55;1.45;;;;;;;-15.57;82.98;100616.84;4961624;29;20051;-90
2021/12/10 03:26:17;;;;;;;1.55;1.45;;;;;;;-15.63;83.40;100604.94;4944241;29;20058;-89
2021/12/10 03:28:46;;;;;;;1.50;1.40;;;;;;;-15.64;83.05;100611.00;4959017;28;20090;-90
2021/12/10 03:31:13;;;;;;;1.30;1.20;;;;;;;-15.62;83.02;100610.94;4961877;29;20122;-90
2021/12/10 03:33:41;;;;;;;1.48;1.38;;;;;;;-15.64;83.05;100615.34;4959490;29;20051;-89
2021/12/10 03:36:10;;;;;;;1.50;1.40;;;;;;;-15.67;83.16;100623.16;4945699;29;20061;-89
2021/12/10 03:38:41;;;;;;;1.50;1.40;;;;;;;-15.73;83.30;100619.03;4960388;29;20509;-89
2021/12/10 03:41:11;;;;;;;1.45;1.35;;;;;;;-15.74;83.33;100633.72;4943730;29;20512;-89
2021/12/10 03:43:39;;;;;;;1.40;1.30;;;;;;;-15.71;83.29;100625.03;4960681;29;20074;-89
2021/12/10 03:46:07;;;;;;;1.20;1.10;;;;;;;-15.73;83.39;100616.44;4969227;29;20051;-90
2021/12/10 03:48:37;;;;;;;1.52;1.42;;;;;;;-15.70;83.49;100613.75;4961719;29;20078;-90
2021/12/10 03:51:08;;;;;;;1.50;1.40;;;;;;;-15.67;83.46;100617.97;4959754;29;20047;-89
2021/12/10 03:53:35;;;;;;;1.40;1.30;;;;;;;-15.74;83.20;100610.41;4943269;29;20053;-89
2021/12/10 03:56:07;;;;;;;1.30;1.20;;;;;;;-15.74;83.28;100620.78;4958653;29;20051;-89
2021/12/10 03:58:35;;;;;;;1.70;1.60;;;;;;;-15.77;83.37;100623.44;4941531;29;20048;-89
2021/12/10 04:01:06;;;;;;;1.15;1.15;;;;;;;-15.78;83.29;100621.72;4942460;29;20174;-88
2021/12/10 04:03:35;;;;;;;1.50;1.40;;;;;;;-15.82;83.37;100622.72;4941729;29;20051;-90
2021/12/10 04:06:03;;;;;;;1.50;1.40;;;;;;;-15.87;83.57;100621.09;4942857;29;20051;-88
2021/12/10 04:08:31;;;;;;;1.50;1.40;;;;;;;-15.88;83.58;100622.00;4951784;29;20082;-87
2021/12/10 04:10:59;;;;;;;1.40;1.30;;;;;;;-15.91;83.72;100625.50;4967107;29;20075;-89
2021/12/10 04:13:27;;;;;;;1.52;1.42;;;;;;;-15.91;83.77;100620.34;4972683;29;20051;-88
2021/12/10 04:16:04;;;;;;;1.40;1.30;;;;;;;-15.88;83.93;100620.25;4961526;29;20118;-88
2021/12/10 04:18:35;;;;;;;1.40;1.30;;;;;;;-15.83;84.07;100618.41;4957436;29;20039;-88
2021/12/10 04:21:05;;;;;;;1.50;1.40;;;;;;;-15.75;84.07;100623.38;4957884;29;20051;-88
2021/12/10 04:23:33;;;;;;;1.50;1.40;;;;;;;-15.68;83.82;100619.72;4956057;29;20464;-89
2021/12/10 04:26:01;;;;;;;1.40;1.30;;;;;;;-15.61;83.81;100615.25;4957600;28;20062;-89
2021/12/10 04:28:29;;;;;;;1.50;1.40;;;;;;;-15.58;83.61;100617.75;4956682;29;20427;-89
2021/12/10 04:30:56;;;;;;;1.20;1.20;;;;;;;-15.56;83.70;100621.16;4961313;28;20047;-89
2021/12/10 04:33:29;;;;;;;1.40;1.30;;;;;;;-15.54;83.60;100621.97;4963509;28;20054;-88
2021/12/10 04:35:58;;;;;;;1.48;1.38;;;;;;;-15.52;83.45;100622.75;4963570;28;20055;-89
2021/12/10 04:38:27;;;;;;;1.58;1.48;;;;;;;-15.51;83.18;100634.84;4943625;29;20605;-89
2021/12/10 04:40:59;;;;;;;1.30;1.20;;;;;;;-15.51;83.43;100627.06;4959713;28;20134;-87
2021/12/10 04:43:28;;;;;;;1.38;1.27;;;;;;;-15.48;83.32;100637.34;4966536;29;20048;-87
2021/12/10 04:45:57;;;;;;;1.25;1.20;;;;;;;-15.51;83.42;100621.88;4961522;28;20365;-88
2021/12/10 04:48:27;;;;;;;1.33;1.25;;;;;;;-15.40;83.48;100639.72;4960500;28;20106;-88
2021/12/10 04:50:56;;;;;;;1.40;1.30;;;;;;;-15.39;83.26;100644.00;4949388;29;20069;-88
2021/12/10 04:53:23;;;;;;;1.60;1.50;;;;;;;-15.47;83.30;100628.66;4965138;28;20055;-86
2021/12/10 04:55:51;;;;;;;1.30;1.20;;;;;;;-15.38;83.30;100645.72;4966544;29;20047;-87
2021/12/10 04:58:18;;;;;;;1.40;1.30;;;;;;;-15.38;83.39;100649.16;4940836;29;20152;-89
2021/12/10 05:00:48;;;;;;;1.40;1.30;;;;;;;-15.38;83.22;100651.72;4975815;28;20054;-87
2021/12/10 05:03:17;;;;;;;1.40;1.30;;;;;;;-15.40;83.30;100650.91;4963598;28;20138;-88
2021/12/10 05:05:46;;;;;;;1.23;1.17;;;;;;;-15.41;83.33;100664.78;4947018;29;20422;-88
2021/12/10 05:08:14;;;;;;;1.60;1.50;;;;;;;-15.42;83.43;100654.44;4962374;28;20113;-89
2021/12/10 05:10:41;;;;;;;1.08;1.08;;;;;;;-15.40;83.48;100661.28;4960316;28;20189;-87
2021/12/10 05:13:09;;;;;;;1.40;1.30;;;;;;;-15.42;83.41;100665.63;4960640;28;20513;-89
2021/12/10 05:15:38;;;;;;;1.50;1.40;;;;;;;-15.43;83.30;100653.59;4967706;28;20043;-89
2021/12/10 05:18:08;;;;;;;1.40;1.30;;;;;;;-15.41;83.38;100669.09;4958525;28;20138;-89
2021/12/10 05:20:38;;;;;;;1.45;1.35;;;;;;;-15.45;83.18;100664.88;4984896;28;20051;-89
2021/12/10 05:23:05;;;;;;;1.40;1.30;;;;;;;-15.41;83.76;100667.34;4947320;29;20058;-89
2021/12/10 05:25:32;;;;;;;1.50;1.40;;;;;;;-15.40;83.45;100660.44;4962824;29;20055;-88
2021/12/10 05:28:00;;;;;;;1.48;1.38;;;;;;;-15.40;83.49;100658.69;4943069;28;20426;-89
2021/12/10 05:30:30;;;;;;;1.48;1.38;;;;;;;-15.39;83.63;100662.13;4946383;29;20141;-88
2021/12/10 05:33:07;;;;;;;1.00;1.00;;;;;;;-15.40;83.34;100656.09;4953873;28;20114;-87
2021/12/10 05:35:34;;;;;;;1.40;1.30;;;;;;;-15.40;83.42;100663.88;4913342;28;20475;-88
2021/12/10 05:38:02;;;;;;;1.10;1.10;;;;;;;-15.43;83.42;100663.94;4959751;28;20053;-86
2021/12/10 05:40:29;;;;;;;1.40;1.30;;;;;;;-15.39;83.50;100675.06;4971816;28;20047;-88
2021/12/10 05:43:22;;;;;;;1.55;1.45;;;;;;;-15.38;83.36;100672.44;4968612;28;20047;-88
2021/12/10 05:45:50;;;;;;;1.02;1.02;;;;;;;-15.37;83.51;100687.09;4954214;28;20065;-88
2021/12/10 05:48:19;;;;;;;1.30;1.20;;;;;;;-15.32;83.42;100693.00;4982206;28;20047;-89
2021/12/10 05:50:47;;;;;;;1.38;1.27;;;;;;;-15.34;83.48;100693.91;4953379;28;20054;-87
2021/12/10 05:53:14;;;;;;;1.38;1.27;;;;;;;-15.36;83.46;100696.56;4966526;28;20229;-88
2021/12/10 05:55:47;;;;;;;1.30;1.20;;;;;;;-15.33;83.42;100699.06;4981770;28;20061;-87
2021/12/10 05:58:14;;;;;;;1.35;1.25;;;;;;;-15.35;83.26;100698.25;4951715;29;20122;-87
2021/12/10 06:00:47;;;;;;;1.38;1.27;;;;;;;-15.37;83.44;100700.03;4967612;29;20154;-88
2021/12/10 06:03:20;;;;;;;1.55;1.45;;;;;;;-15.34;83.45;100704.28;4965549;29;20075;-88
2021/12/10 06:05:47;;;;;;;1.45;1.35;;;;;;;-15.31;83.53;100707.66;4954892;29;20070;-87
2021/12/10 06:08:15;;;;;;;1.05;1.05;;;;;;;-15.30;83.29;100704.16;4962125;29;20047;-88
2021/12/10 06:10:44;;;;;;;1.38;1.27;;;;;;;-15.30;83.25;100703.31;4944569;29;20047;-87
2021/12/10 06:13:12;;;;;;;1.27;1.20;;;;;;;-15.27;83.20;100711.00;4952185;29;20059;-88
2021/12/10 06:15:39;;;;;;;1.50;1.40;;;;;;;-15.26;82.86;100704.94;4944549;29;20107;-89
2021/12/10 06:18:07;;;;;;;1.10;1.10;;;;;;;-15.30;82.66;100711.09;4951712;29;20071;-88
2021/12/10 06:20:37;;;;;;;1.30;1.20;;;;;;;-15.26;82.88;100711.84;4930893;29;20083;-89
2021/12/10 06:23:06;;;;;;;1.33;1.23;;;;;;;-15.24;82.67;100704.91;4615097;28;10000374;-84
2021/12/10 06:25:34;;;;;;;1.55;1.45;;;;;;;-15.24;82.54;100710.94;4950996;28;20058;-86
2021/12/10 06:28:03;;;;;;;1.30;1.20;;;;;;;-15.20;82.47;100709.13;4908566;29;20763;-86
2021/12/10 06:30:33;;;;;;;1.30;1.20;;;;;;;-15.22;82.57;100703.13;4949218;29;20058;-85
2021/12/10 06:33:09;;;;;;;1.63;1.52;;;;;;;-15.19;82.49;100708.22;4957132;29;20125;-85
2021/12/10 06:35:38;;;;;;;1.40;1.30;;;;;;;-15.13;82.05;100708.06;4947215;29;20051;-87
2021/12/10 06:38:06;;;;;;;1.30;1.20;;;;;;;-15.11;81.85;100711.47;4937890;29;20059;-84
2021/12/10 06:40:43;;;;;;;1.13;1.13;;;;;;;-15.11;81.88;100701.97;4943099;29;20072;-91
2021/12/10 06:43:13;;;;;;;1.30;1.20;;;;;;;-15.06;81.73;100712.22;4947318;29;20074;-88
2021/12/10 06:45:46;;;;;;;1.50;1.40;;;;;;;-14.97;81.44;100709.34;4966395;29;20063;-88
2021/12/10 06:48:15;;;;;;;1.63;1.52;;;;;;;-14.88;81.38;100716.88;4929949;29;20103;-90
2021/12/10 06:50:49;;;;;;;1.60;1.50;;;;;;;-14.78;80.98;100721.78;4947535;29;20086;-84
2021/12/10 06:53:19;;;;;;;1.70;1.60;;;;;;;-14.68;80.66;100718.94;4949678;29;20047;-84
2021/12/10 06:55:48;;;;;;;1.30;1.20;;;;;;;-14.59;80.56;100715.22;4890837;29;20068;-86
2021/12/10 06:58:17;;;;;;;1.60;1.50;;;;;;;-14.44;80.07;100725.09;4920574;29;20442;-86
2021/12/10 07:00:48;;;;;;;1.52;1.42;;;;;;;-14.30;79.84;100726.44;4935832;29;20056;-87
2021/12/10 07:03:20;;;;;;;1.48;1.38;;;;;;;-14.25;79.44;100715.06;4910669;29;20047;-89
2021/12/10 07:05:49;;;;;;;1.50;1.40;;;;;;;-13.89;79.04;100721.78;4905437;29;20055;-86
2021/12/10 07:08:17;;;;;;;1.50;1.40;;;;;;;-13.56;78.26;100735.44;4967368;28;20139;-89
2021/12/10 07:10:46;;;;;;;1.67;1.58;;;;;;;-13.37;77.18;100726.13;4968033;28;20047;-86
2021/12/10 07:13:15;;;;;;;1.80;1.70;;;;;;;-13.26;76.80;100728.34;4963127;28;20051;-83
2021/12/10 07:15:44;;;;;;;1.50;1.40;;;;;;;-13.20;76.02;100722.94;4955271;29;20047;-85
2021/12/10 07:18:11;;;;;;;1.60;1.50;;;;;;;-13.06;75.53;100734.59;4941149;29;20044;-84
2021/12/10 07:20:40;;;;;;;1.55;1.45;;;;;;;-12.95;74.80;100732.50;4949629;29;20378;-85
2021/12/10 07:23:36;;;;;;;1.40;1.30;;;;;;;-12.73;74.16;100728.25;4957781;28;20051;-89
2021/12/10 07:26:05;;;;;;;1.52;1.42;;;;;;;-12.63;73.38;100718.38;4956375;29;20062;-85
2021/12/10 07:28:32;;;;;;;1.50;1.40;;;;;;;-12.46;72.90;100720.34;4948208;29;20063;-85
2021/12/10 07:31:01;;;;;;;1.70;1.60;;;;;;;-12.36;72.43;100729.50;4961865;28;20103;-85
2021/12/10 07:33:29;;;;;;;1.40;1.30;;;;;;;-12.19;72.08;100728.03;4949323;28;20051;-87
2021/12/10 07:35:57;;;;;;;1.50;1.40;;;;;;;-12.16;71.46;100714.91;4938678;29;20138;-84
2021/12/10 07:38:25;;;;;;;1.58;1.48;;;;;;;-12.10;70.67;100701.63;4929223;29;20502;-87
2021/12/10 07:40:53;;;;;;;1.70;1.60;;;;;;;-11.93;70.12;100727.03;4954340;28;20059;-82
2021/12/10 07:43:26;;;;;;;1.65;1.55;;;;;;;-11.92;69.45;100706.16;4944709;29;20081;-85
2021/12/10 07:45:54;;;;;;;2.00;1.85;;;;;;;-11.65;68.99;100703.31;4959488;28;20051;-89
2021/12/10 07:48:24;;;;;;;2.00;1.60;;;;;;;-11.45;68.80;100715.53;4959090;29;20110;-85
2021/12/10 07:50:57;;;;;;;1.83;1.73;;;;;;;-11.34;67.82;100697.69;4954917;28;20043;-87
2021/12/10 07:53:28;;;;;;;1.80;1.70;;;;;;;-11.04;66.97;100729.44;4953043;29;20055;-83
2021/12/10 07:56:00;;;;;;;1.70;1.60;;;;;;;-10.76;66.75;100729.13;4915332;29;20065;-84
2021/12/10 07:58:29;;;;;;;1.90;1.80;;;;;;;-10.58;65.72;100724.84;4949114;29;20047;-84
2021/12/10 08:00:57;;;;;;;1.60;1.50;;;;;;;-10.40;65.43;100728.41;4936820;29;20138;-85
2021/12/10 08:03:27;;;;;;;1.73;1.63;;;;;;;-10.39;64.46;100726.63;4953116;28;20094;-84
2021/12/10 08:05:55;;;;;;;1.90;1.80;;;;;;;-10.29;64.40;100740.97;4958677;29;20091;-86
2021/12/10 08:08:25;;;;;;;1.60;1.50;;;;;;;-10.16;64.31;100715.94;4960788;29;20150;-85
2021/12/10 08:10:54;;;;;;;1.70;1.60;;;;;;;-9.95;63.96;100728.94;4952234;29;20054;-82
2021/12/10 08:13:22;;;;;;;1.90;1.80;;;;;;;-9.93;63.16;100706.19;4944361;29;20055;-83
2021/12/10 08:15:50;;;;;;;1.65;1.55;;;;;;;-9.62;62.48;100724.75;4960219;28;20051;-84
2021/12/10 08:18:19;;;;;;;1.80;1.70;;;;;;;-9.54;62.37;100713.03;4934587;29;20054;-83
2021/12/10 08:20:47;;;;;;;1.60;1.50;;;;;;;-9.51;61.80;100708.53;4944834;29;20372;-83
2021/12/10 08:23:15;;;;;;;1.67;1.58;;;;;;;-9.38;61.52;100724.47;4948107;28;20051;-83
2021/12/10 08:25:42;;;;;;;1.58;1.48;;;;;;;-9.18;61.17;100723.47;4955021;28;20055;-84
2021/12/10 08:28:10;;;;;;;1.88;1.77;;;;;;;-9.04;60.75;100725.38;4962635;28;20042;-84
2021/12/10 08:30:38;;;;;;;1.60;1.50;;;;;;;-8.90;60.37;100736.00;4971126;28;20057;-82
2021/12/10 08:33:12;;;;;;;1.48;1.38;;;;;;;-8.74;60.33;100725.59;4960647;28;20051;-83
2021/12/10 08:35:43;;;;;;;1.80;1.70;;;;;;;-8.63;59.39;100717.16;4946295;28;20054;-83
2021/12/10 08:38:11;;;;;;;1.63;1.52;;;;;;;-8.75;58.54;100701.19;4948534;29;20509;-82
2021/12/10 08:40:54;;;;;;;1.63;1.52;;;;;;;-8.44;58.48;100717.91;4949534;28;20043;-84
2021/12/10 08:43:22;;;;;;;1.55;1.45;;;;;;;-7.98;58.05;100704.91;4943039;29;20051;-82
2021/12/10 08:45:53;;;;;;;1.85;1.75;;;;;;;-8.03;56.93;100716.56;4938922;29;20155;-81
2021/12/10 08:48:23;;;;;;;1.50;1.40;;;;;;;-7.86;56.78;100725.19;4943397;28;20511;-82
2021/12/10 08:50:54;;;;;;;1.27;1.20;;;;;;;-7.27;56.71;100728.00;4948310;29;20065;-82
2021/12/10 08:53:23;;;;;;;1.50;1.40;;;;;;;-7.04;55.56;100721.44;4914286;29;20106;-82
2021/12/10 08:55:53;;;;;;;1.50;1.40;;;;;;;-6.65;54.87;100719.16;4953039;29;20047;-83
2021/12/10 08:58:21;;;;;;;1.60;1.50;;;;;;;-6.86;53.93;100701.13;4933242;29;20090;-82
2021/12/10 09:00:56;;;;;;;1.50;1.40;;;;;;;-7.04;54.57;100716.19;4951334;29;20456;-90
2021/12/10 09:03:42;;;;;;;1.10;1.10;;;;;;;-7.04;54.34;100710.06;4944190;28;20129;-83
2021/12/10 09:06:11;;;;;;;1.40;1.30;;;;;;;-6.71;54.42;100699.34;4935910;29;20107;-84
2021/12/10 09:08:39;;;;;;;1.33;1.23;;;;;;;-6.40;53.29;100708.84;4920106;29;20515;-83
2021/12/10 09:11:10;;;;;;;1.42;1.33;;;;;;;-6.27;53.48;100692.31;4912948;29;20048;-83
2021/12/10 09:13:42;;;;;;;1.13;1.13;;;;;;;-6.15;53.20;100681.88;4913114;29;20063;-84
2021/12/10 09:16:19;;;;;;;1.50;1.40;;;;;;;-6.20;53.15;100691.84;4912846;29;20056;-84
2021/12/10 09:18:47;;;;;;;1.10;1.10;;;;;;;-6.09;53.25;100699.03;4906143;29;20054;-84
2021/12/10 09:21:15;;;;;;;1.10;1.10;;;;;;;-5.86;53.36;100705.44;4929948;29;20044;-84
2021/12/10 09:23:42;;;;;;;1.50;1.40;;;;;;;-5.72;51.85;100700.16;4941564;29;20063;-85
2021/12/10 09:26:13;;;;;;;1.05;1.05;;;;;;;-5.93;51.67;100693.63;4903385;29;20498;-85
2021/12/10 09:28:42;;;;;;;1.30;1.20;;;;;;;-5.85;52.25;100708.91;4934728;29;20497;-84
2021/12/10 09:31:09;;;;;;;1.33;1.23;;;;;;;-5.67;51.61;100707.75;4935454;29;20051;-83
2021/12/10 09:33:38;;;;;;;1.40;1.30;;;;;;;-5.69;51.69;100696.47;4919655;29;20679;-85
2021/12/10 09:36:06;;;;;;;1.10;1.10;;;;;;;-5.69;50.87;100710.47;4934747;29;20868;-84
2021/12/10 09:38:33;;;;;;;1.10;1.10;;;;;;;-5.56;51.20;100705.25;4953979;29;20049;-83
2021/12/10 09:41:04;;;;;;;1.20;1.20;;;;;;;-5.33;50.86;100714.28;4936129;29;20039;-87
2021/12/10 09:43:33;;;;;;;1.45;1.35;;;;;;;-5.27;50.14;100713.03;4937797;29;20062;-87
2021/12/10 09:46:04;;;;;;;1.45;1.35;;;;;;;-5.09;50.17;100711.84;4958936;29;20051;-84
2021/12/10 09:48:31;;;;;;;1.25;1.20;;;;;;;-4.80;49.83;100715.13;4947665;28;20054;-84
2021/12/10 09:51:11;;;;;;;1.30;1.20;;;;;;;-4.79;49.77;100708.06;4919859;29;20098;-86
2021/12/10 09:53:42;;;;;;;1.30;1.20;;;;;;;-4.80;49.68;100704.59;4938419;29;20051;-85
2021/12/10 09:56:09;;;;;;;1.40;1.30;;;;;;;-4.79;49.58;100721.22;4936709;29;20047;-85
2021/12/10 09:58:37;;;;;;;1.13;1.13;;;;;;;-4.50;48.76;100713.97;4929369;29;20766;-86
2021/12/10 10:01:12;;;;;;;1.23;1.20;;;;;;;-4.40;48.67;100719.47;4950653;29;20178;-84
2021/12/10 10:03:42;;;;;;;1.30;1.20;;;;;;;-4.47;48.88;100711.13;4935111;29;20047;-83
2021/12/10 10:06:11;;;;;;;1.10;1.10;;;;;;;-4.54;48.66;100720.41;4950523;29;20079;-85
2021/12/10 10:08:38;;;;;;;1.10;1.10;;;;;;;-4.38;48.28;100712.28;4935069;29;20047;-86
2021/12/10 10:11:17;;;;;;;1.10;1.10;;;;;;;-4.28;47.99;100717.75;4937094;28;20166;-85
2021/12/10 10:13:48;;;;;;;1.50;1.40;;;;;;;-4.50;47.92;100713.97;4948299;29;20053;-86
2021/12/10 10:16:16;;;;;;;1.10;1.10;;;;;;;-4.20;47.96;100732.09;4937122;29;20055;-84
2021/12/10 10:18:45;;;;;;;1.38;1.27;;;;;;;-4.21;47.24;100727.75;4952723;28;20069;-85
2021/12/10 10:21:36;;;;;;;1.10;1.10;;;;;;;-4.31;46.80;100716.16;4931564;29;20047;-85
2021/12/10 10:24:09;;;;;;;1.23;1.20;;;;;;;-4.55;46.93;100739.81;4930662;29;20590;-84
2021/12/10 10:26:46;;;;;;;1.23;1.20;;;;;;;-4.52;47.48;100729.06;4953378;29;20106;-85
2021/12/10 10:29:16;;;;;;;1.40;1.30;;;;;;;-4.41;47.46;100728.31;4923079;29;20548;-85
2021/12/10 10:31:55;;;;;;;1.35;1.25;;;;;;;-4.09;47.32;100748.97;4913843;29;20062;-85
2021/12/10 10:34:25;;;;;;;1.10;1.10;;;;;;;-4.16;46.96;100737.97;4977106;28;20043;-88
2021/12/10 10:36:57;;;;;;;1.40;1.30;;;;;;;-4.02;46.88;100727.31;4919544;28;20091;-87
2021/12/10 10:39:43;;;;;;;1.00;1.00;;;;;;;-3.97;46.73;100741.03;4941056;28;20043;-86
2021/12/10 10:42:16;;;;;;;1.40;1.30;;;;;;;-3.87;46.91;100743.00;4962233;28;20027;-86
2021/12/10 10:44:59;;;;;;;1.10;1.10;;;;;;;-4.15;46.48;100735.25;4933299;29;20051;-86
2021/12/10 10:47:29;;;;;;;1.02;1.02;;;;;;;-3.93;47.05;100736.34;4943024;29;20051;-85
2021/12/10 10:50:00;;;;;;;1.27;1.23;;;;;;;-3.47;46.74;100758.59;4944552;29;20023;-86
2021/12/10 10:55:31;;;;;;;1.20;1.20;;;;;;;-3.49;45.96;100756.94;4928913;29;20062;-86
2021/12/10 10:58:03;;;;;;;1.40;1.30;;;;;;;-3.61;46.36;100746.41;4923442;29;20569;-85
2021/12/10 11:01:07;;;;;;;1.40;1.30;;;;;;;-3.71;45.90;100741.78;4942416;29;20422;-85
2021/12/10 11:03:59;;;;;;;1.60;1.50;;;;;;;-3.43;46.12;100749.50;4942986;29;20051;-86
2021/12/10 11:06:42;;;;;;;1.60;1.50;;;;;;;-3.16;45.52;100739.56;4950632;29;20059;-86
2021/12/10 11:09:17;;;;;;;1.60;1.50;;;;;;;-3.15;44.95;100746.53;4915811;29;20051;-84
2021/12/10 11:11:50;;;;;;;1.30;1.20;;;;;;;-3.56;45.42;100750.41;4955678;29;20055;-84
2021/12/10 11:14:22;;;;;;;1.50;1.40;;;;;;;-3.89;45.65;100743.13;4954911;29;20055;-86
2021/12/10 11:16:53;;;;;;;1.40;1.30;;;;;;;-3.96;46.12;100734.78;4938165;29;20055;-85
2021/12/10 11:19:48;;;;;;;1.50;1.40;;;;;;;-4.05;46.55;100738.09;4927255;29;20608;-84
2021/12/10 11:22:16;;;;;;;1.42;1.33;;;;;;;-3.89;46.76;100729.09;4944472;29;20087;-83
2021/12/10 11:24:51;;;;;;;1.25;1.20;;;;;;;-3.89;46.66;100727.28;4942374;29;20044;-85
2021/12/10 11:27:41;;;;;;;0.95;0.95;;;;;;;-4.04;46.36;100729.22;4926414;29;20047;-84
2021/12/10 11:30:22;;;;;;;1.55;1.45;;;;;;;-3.84;46.45;100742.78;4920704;29;20048;-85
2021/12/10 11:33:08;;;;;;;1.40;1.30;;;;;;;-3.64;45.77;100733.44;4935939;29;20052;-85
2021/12/10 11:35:43;;;;;;;1.40;1.30;;;;;;;-3.71;46.10;100725.13;4920220;29;20126;-84
2021/12/10 11:38:16;;;;;;;1.35;1.25;;;;;;;-4.07;46.47;100729.44;4940554;29;20058;-87
2021/12/10 11:41:14;;;;;;;1.40;1.30;;;;;;;-4.15;46.54;100727.34;4945480;29;20507;-84
2021/12/10 11:43:56;;;;;;;1.38;1.27;;;;;;;-4.38;47.05;100717.53;4936550;29;20070;-84
2021/12/10 11:46:51;;;;;;;1.30;1.20;;;;;;;-4.13;47.14;100724.56;4920375;29;20078;-85
2021/12/10 11:49:25;;;;;;;1.20;1.20;;;;;;;-4.17;46.96;100709.94;4942759;29;20067;-85